Time;durP1;ratioP1;P1;durP2;ratioP2;P2;SDS_P1;SDS_P2;PMS_P1;PMS_P2;Temp;Humidity;BMP_temperature;BMP_pressure;BME280_temperature;BME280_humidity;BME280_pressure;Samples;Min_cycle;Max_cycle;Signal;HPM_P1;HPM_P2
2022/10/31 00:02:41;;;;;;;6.00;4.23;;;;;;;;;;5005554;28;20181;-80
2022/10/31 00:05:48;;;;;;;6.67;4.03;;;;;;;;;;4994937;28;20177;-80
2022/10/31 00:08:54;;;;;;;10.90;3.90;;;;;;;;;;5006411;28;20198;-80
2022/10/31 00:11:58;;;;;;;7.70;5.20;;;;;;;;;;4983490;28;20572;-80
2022/10/31 00:15:04;;;;;;;5.13;4.63;;;;;;;;;;4994659;28;20189;-80
2022/10/31 00:18:09;;;;;;;8.27;4.57;;;;;;;;;;4984189;28;20181;-81
2022/10/31 00:21:14;;;;;;;6.90;4.80;;;;;;;;;;4984093;28;20213;-81
2022/10/31 00:24:19;;;;;;;6.13;4.50;;;;;;;;;;4984445;28;20185;-82
2022/10/31 00:27:23;;;;;;;6.33;4.20;;;;;;;;;;5006694;28;20640;-81
2022/10/31 00:30:27;;;;;;;5.87;3.70;;;;;;;;;;4984684;28;20189;-82
2022/10/31 00:33:37;;;;;;;5.70;3.87;;;;;;;;;;4984298;28;20205;-81
2022/10/31 00:36:41;;;;;;;10.97;4.13;;;;;;;;;;4984657;28;20177;-81
2022/10/31 00:39:50;;;;;;;4.00;3.60;;;;;;;;;;4986088;28;20530;-81
2022/10/31 00:42:54;;;;;;;5.13;3.80;;;;;;;;;;4985346;28;20510;-81
2022/10/31 00:45:58;;;;;;;5.67;3.90;;;;;;;;;;4996173;28;20317;-81
2022/10/31 00:49:03;;;;;;;11.37;5.60;;;;;;;;;;4995696;28;20209;-81
2022/10/31 00:52:07;;;;;;;8.63;5.20;;;;;;;;;;4985274;28;20700;-82
2022/10/31 00:55:11;;;;;;;7.80;5.30;;;;;;;;;;4984751;28;20190;-82
2022/10/31 00:58:15;;;;;;;6.27;4.40;;;;;;;;;;4984445;28;20201;-81
2022/10/31 01:01:19;;;;;;;10.83;5.40;;;;;;;;;;4984363;28;20221;-81
2022/10/31 01:04:23;;;;;;;21.20;5.90;;;;;;;;;;4983810;28;20181;-81
2022/10/31 01:07:28;;;;;;;7.63;4.60;;;;;;;;;;4984265;28;20676;-82
2022/10/31 01:10:32;;;;;;;12.23;4.97;;;;;;;;;;4994888;28;20201;-81
2022/10/31 01:13:37;;;;;;;13.47;5.23;;;;;;;;;;5006273;28;20209;-81
2022/10/31 01:16:41;;;;;;;7.37;4.87;;;;;;;;;;4983475;28;20197;-81
2022/10/31 01:19:45;;;;;;;11.47;5.23;;;;;;;;;;4983715;28;20189;-81
2022/10/31 01:22:49;;;;;;;9.13;5.10;;;;;;;;;;4984486;28;20514;-82
2022/10/31 01:26:09;;;;;;;8.93;5.23;;;;;;;;;;4994787;28;20621;-81
2022/10/31 01:29:13;;;;;;;14.17;5.30;;;;;;;;;;5005644;28;20537;-81
2022/10/31 01:32:18;;;;;;;22.60;4.30;;;;;;;;;;5005851;28;20549;-81
2022/10/31 01:35:23;;;;;;;20.53;4.40;;;;;;;;;;4983759;28;20177;-81
2022/10/31 01:38:27;;;;;;;6.60;4.00;;;;;;;;;;4983207;28;20189;-81
2022/10/31 01:41:35;;;;;;;4.73;3.57;;;;;;;;;;4982889;28;20556;-82
2022/10/31 01:44:41;;;;;;;6.40;3.90;;;;;;;;;;4983265;28;20182;-81
2022/10/31 01:47:48;;;;;;;5.67;3.37;;;;;;;;;;4984294;28;20177;-82
2022/10/31 01:50:54;;;;;;;7.63;3.70;;;;;;;;;;4983369;28;20213;-82
2022/10/31 01:54:04;;;;;;;6.73;4.10;;;;;;;;;;4982987;28;20213;-81
2022/10/31 01:57:12;;;;;;;10.03;4.40;;;;;;;;;;5017654;28;20186;-82
2022/10/31 02:00:17;;;;;;;3.87;3.57;;;;;;;;;;4982913;28;20182;-82
2022/10/31 02:03:21;;;;;;;7.00;3.90;;;;;;;;;;4985268;28;20183;-81
2022/10/31 02:06:44;;;;;;;4.17;3.43;;;;;;;;;;4985740;28;20534;-81
2022/10/31 02:09:52;;;;;;;8.87;3.50;;;;;;;;;;4986706;28;20178;-81
2022/10/31 02:13:01;;;;;;;7.30;4.10;;;;;;;;;;4985758;28;20178;-81
2022/10/31 02:16:05;;;;;;;8.37;4.07;;;;;;;;;;4984885;28;20202;-82
2022/10/31 02:19:30;;;;;;;8.43;4.43;;;;;;;;;;4986034;28;20186;-82
2022/10/31 02:23:16;;;;;;;6.90;4.57;;;;;;;;;;4975127;28;20218;-81
2022/10/31 02:26:38;;;;;;;7.17;4.50;;;;;;;;;;4964206;28;20195;-81
2022/10/31 02:30:23;;;;;;;7.07;4.20;;;;;;;;;;4975750;28;20186;-81
2022/10/31 02:34:02;;;;;;;5.43;3.60;;;;;;;;;;4927513;29;20683;-82
2022/10/31 02:37:12;;;;;;;5.33;3.80;;;;;;;;;;4920327;28;20201;-81
2022/10/31 02:40:44;;;;;;;17.83;4.37;;;;;;;;;;4987131;28;20654;-81
2022/10/31 02:44:11;;;;;;;17.73;3.97;;;;;;;;;;4987269;28;20186;-82
2022/10/31 02:47:18;;;;;;;27.70;4.27;;;;;;;;;;4975839;28;20238;-82
2022/10/31 02:50:28;;;;;;;36.67;4.90;;;;;;;;;;4974004;28;20206;-81
2022/10/31 02:53:33;;;;;;;38.53;5.20;;;;;;;;;;4986840;28;20210;-82
2022/10/31 02:56:38;;;;;;;5.73;4.57;;;;;;;;;;4976565;28;20642;-82
2022/10/31 02:59:48;;;;;;;6.43;4.20;;;;;;;;;;4977163;28;20206;-82
2022/10/31 03:03:19;;;;;;;5.90;4.50;;;;;;;;;;4975259;28;20187;-81
2022/10/31 03:06:32;;;;;;;3.97;3.57;;;;;;;;;;4985974;28;20234;-81
2022/10/31 03:09:49;;;;;;;5.10;4.00;;;;;;;;;;4986604;28;20182;-81
2022/10/31 03:13:17;;;;;;;11.10;5.53;;;;;;;;;;4975345;28;20183;-81
2022/10/31 03:16:43;;;;;;;5.90;4.30;;;;;;;;;;4976098;28;20182;-81
2022/10/31 03:19:50;;;;;;;5.17;3.67;;;;;;;;;;4998165;28;20190;-82
2022/10/31 03:22:56;;;;;;;8.07;4.10;;;;;;;;;;4975380;28;20228;-82
2022/10/31 03:26:05;;;;;;;8.23;4.60;;;;;;;;;;4986299;28;20195;-82
2022/10/31 03:29:15;;;;;;;6.20;4.00;;;;;;;;;;4979033;28;20186;-81
2022/10/31 03:32:25;;;;;;;6.77;3.73;;;;;;;;;;4978041;28;20580;-81
2022/10/31 03:35:32;;;;;;;7.33;4.20;;;;;;;;;;4978690;28;20210;-81
2022/10/31 03:38:38;;;;;;;10.57;4.23;;;;;;;;;;4990774;28;20198;-81
2022/10/31 03:41:48;;;;;;;5.20;4.10;;;;;;;;;;4978330;28;20222;-81
2022/10/31 03:45:05;;;;;;;6.83;4.10;;;;;;;;;;4990010;28;20190;-81
2022/10/31 03:48:10;;;;;;;6.47;4.30;;;;;;;;;;4979101;28;20202;-81
2022/10/31 03:51:58;;;;;;;7.03;4.67;;;;;;;;;;4989726;28;20221;-82
2022/10/31 03:55:10;;;;;;;7.83;4.70;;;;;;;;;;4930508;29;20233;-81
2022/10/31 03:58:42;;;;;;;7.70;4.40;;;;;;;;;;4924788;28;20180;-82
2022/10/31 04:01:52;;;;;;;11.37;5.10;;;;;;;;;;4978881;28;20301;-82
2022/10/31 04:04:57;;;;;;;16.20;5.43;;;;;;;;;;4989045;28;20186;-83
2022/10/31 04:08:06;;;;;;;10.50;4.87;;;;;;;;;;4977552;28;20182;-82
2022/10/31 04:11:13;;;;;;;9.23;5.43;;;;;;;;;;4977175;28;20554;-82
2022/10/31 04:14:21;;;;;;;12.30;5.70;;;;;;;;;;4977282;28;20681;-82
2022/10/31 04:17:31;;;;;;;10.53;5.43;;;;;;;;;;5000074;28;20182;-82
2022/10/31 04:20:38;;;;;;;14.73;5.70;;;;;;;;;;4999317;28;20681;-82
2022/10/31 04:23:43;;;;;;;8.97;5.00;;;;;;;;;;4976934;28;20182;-82
2022/10/31 04:26:55;;;;;;;12.93;6.40;;;;;;;;;;4988249;28;20194;-82
2022/10/31 04:30:01;;;;;;;11.83;5.70;;;;;;;;;;4977324;28;20198;-82
2022/10/31 04:33:05;;;;;;;13.93;5.97;;;;;;;;;;4977255;28;20187;-82
2022/10/31 04:36:10;;;;;;;11.20;5.03;;;;;;;;;;4988896;28;20621;-82
2022/10/31 04:39:15;;;;;;;10.67;5.07;;;;;;;;;;4976631;28;20182;-82
2022/10/31 04:42:29;;;;;;;11.20;5.43;;;;;;;;;;4998925;28;20218;-81
2022/10/31 04:45:37;;;;;;;12.37;5.83;;;;;;;;;;4988071;28;20179;-82
2022/10/31 04:48:41;;;;;;;17.03;5.90;;;;;;;;;;4976110;28;20542;-82
2022/10/31 04:51:46;;;;;;;8.80;5.37;;;;;;;;;;4992757;23;20243;-78
2022/10/31 04:54:51;;;;;;;8.30;5.23;;;;;;;;;;4999927;28;20234;-78
2022/10/31 04:58:18;;;;;;;8.93;5.53;;;;;;;;;;4973471;28;20187;-78
2022/10/31 05:01:23;;;;;;;11.13;6.00;;;;;;;;;;4959083;28;20218;-77
2022/10/31 05:04:27;;;;;;;12.10;6.10;;;;;;;;;;4970763;28;20203;-78
2022/10/31 05:07:31;;;;;;;11.97;6.33;;;;;;;;;;4959604;28;20198;-78
2022/10/31 05:10:37;;;;;;;14.07;5.93;;;;;;;;;;4959814;28;20222;-78
2022/10/31 05:13:42;;;;;;;10.47;5.50;;;;;;;;;;4959529;28;20527;-77
2022/10/31 05:16:51;;;;;;;9.70;5.87;;;;;;;;;;4984496;28;20198;-78
2022/10/31 05:20:16;;;;;;;8.47;5.23;;;;;;;;;;4988818;28;20190;-78
2022/10/31 05:23:43;;;;;;;26.60;6.73;;;;;;;;;;4986759;28;20636;-78
2022/10/31 05:26:48;;;;;;;23.07;5.57;;;;;;;;;;4977151;28;20198;-78
2022/10/31 05:29:53;;;;;;;15.07;6.00;;;;;;;;;;5000159;28;20178;-78
2022/10/31 05:32:57;;;;;;;11.07;5.37;;;;;;;;;;5000432;28;20182;-78
2022/10/31 05:36:21;;;;;;;10.03;5.63;;;;;;;;;;4979526;28;20237;-77
2022/10/31 05:39:32;;;;;;;7.80;5.20;;;;;;;;;;4978843;28;20202;-78
2022/10/31 05:42:42;;;;;;;6.30;5.20;;;;;;;;;;4978323;28;20179;-78
2022/10/31 05:45:47;;;;;;;11.50;5.83;;;;;;;;;;4988917;28;20179;-78
2022/10/31 05:49:11;;;;;;;6.60;5.23;;;;;;;;;;5000963;28;20186;-78
2022/10/31 05:52:38;;;;;;;7.53;5.93;;;;;;;;;;4999349;28;20226;-78
2022/10/31 05:55:52;;;;;;;13.67;6.47;;;;;;;;;;4978490;28;20565;-78
2022/10/31 05:58:59;;;;;;;9.20;6.30;;;;;;;;;;4976282;28;20641;-77
2022/10/31 06:02:04;;;;;;;12.70;7.53;;;;;;;;;;4986142;28;20229;-77
2022/10/31 06:05:27;;;;;;;11.53;7.77;;;;;;;;;;4986272;28;20182;-78
2022/10/31 06:08:32;;;;;;;18.37;11.40;;;;;;;;;;4998409;28;20197;-78
2022/10/31 06:11:41;;;;;;;12.10;7.60;;;;;;;;;;4977284;28;20218;-78
2022/10/31 06:15:14;;;;;;;13.70;6.00;;;;;;;;;;4974463;28;20218;-77
2022/10/31 06:18:20;;;;;;;8.00;5.73;;;;;;;;;;4978763;28;20187;-77
2022/10/31 06:21:27;;;;;;;10.87;6.43;;;;;;;;;;4967363;28;20222;-78
2022/10/31 06:24:31;;;;;;;11.33;7.90;;;;;;;;;;4966180;28;20175;-78
2022/10/31 06:27:42;;;;;;;15.00;8.97;;;;;;;;;;4955376;28;20179;-78
2022/10/31 06:30:51;;;;;;;16.23;9.23;;;;;;;;;;4974029;28;20225;-78
2022/10/31 06:33:56;;;;;;;18.83;9.87;;;;;;;;;;4974134;28;20205;-78
2022/10/31 06:37:01;;;;;;;25.03;11.07;;;;;;;;;;4962801;28;20201;-78
2022/10/31 06:40:07;;;;;;;47.80;12.27;;;;;;;;;;4972716;28;20178;-77
2022/10/31 06:43:27;;;;;;;17.10;9.33;;;;;;;;;;4985354;28;20660;-78
2022/10/31 06:46:50;;;;;;;19.73;8.80;;;;;;;;;;4995753;28;20179;-77
2022/10/31 06:50:17;;;;;;;18.47;7.80;;;;;;;;;;4999650;28;20194;-77
2022/10/31 06:53:23;;;;;;;15.27;9.00;;;;;;;;;;4971365;28;20205;-77
2022/10/31 06:56:27;;;;;;;14.20;7.53;;;;;;;;;;4982296;28;20684;-77
2022/10/31 06:59:34;;;;;;;29.43;7.60;;;;;;;;;;4982355;28;20178;-77
2022/10/31 07:02:44;;;;;;;16.73;6.67;;;;;;;;;;4985174;28;20182;-77
2022/10/31 07:05:49;;;;;;;8.50;6.70;;;;;;;;;;4974577;28;20182;-77
2022/10/31 07:08:53;;;;;;;9.20;6.70;;;;;;;;;;4978590;28;20198;-78
2022/10/31 07:11:57;;;;;;;16.73;6.87;;;;;;;;;;4969064;28;20590;-77
2022/10/31 07:15:01;;;;;;;19.13;7.30;;;;;;;;;;4965870;28;20214;-77
2022/10/31 07:18:07;;;;;;;8.10;7.10;;;;;;;;;;4967595;28;20187;-77
2022/10/31 07:21:12;;;;;;;10.43;7.13;;;;;;;;;;4979182;28;20214;-77
2022/10/31 07:24:17;;;;;;;12.60;6.63;;;;;;;;;;4968489;28;20183;-77
2022/10/31 07:27:21;;;;;;;7.83;6.87;;;;;;;;;;4978708;28;20614;-77
2022/10/31 07:30:26;;;;;;;13.70;6.67;;;;;;;;;;4959359;28;20523;-78
2022/10/31 07:33:33;;;;;;;8.80;7.07;;;;;;;;;;4967067;28;20206;-77
2022/10/31 07:37:03;;;;;;;8.67;6.63;;;;;;;;;;4979828;28;20221;-77
2022/10/31 07:40:09;;;;;;;9.20;6.07;;;;;;;;;;4983379;28;20681;-79
2022/10/31 07:43:13;;;;;;;7.63;6.30;;;;;;;;;;4963395;28;20201;-77
2022/10/31 07:46:34;;;;;;;9.73;6.17;;;;;;;;;;4976712;28;20178;-77
2022/10/31 07:49:56;;;;;;;10.40;7.20;;;;;;;;;;4987410;28;20483;-77
2022/10/31 07:53:19;;;;;;;9.47;6.77;;;;;;;;;;4984395;28;20218;-78
2022/10/31 07:56:27;;;;;;;8.13;6.17;;;;;;;;;;4984713;28;20202;-77
2022/10/31 07:59:31;;;;;;;10.17;6.47;;;;;;;;;;4984867;28;20198;-79
2022/10/31 08:02:36;;;;;;;12.77;6.23;;;;;;;;;;4973687;28;20218;-79
2022/10/31 08:06:03;;;;;;;8.03;6.23;;;;;;;;;;4997018;28;20179;-79
2022/10/31 08:09:26;;;;;;;15.83;6.23;;;;;;;;;;4996737;28;20194;-78
2022/10/31 08:12:35;;;;;;;14.33;5.87;;;;;;;;;;4976069;28;20214;-78
2022/10/31 08:15:41;;;;;;;11.10;6.77;;;;;;;;;;4987285;28;20213;-78
2022/10/31 08:18:47;;;;;;;8.20;6.73;;;;;;;;;;4986619;28;20179;-78
2022/10/31 08:21:54;;;;;;;9.23;6.07;;;;;;;;;;4974256;28;20225;-79
2022/10/31 08:24:59;;;;;;;9.10;6.30;;;;;;;;;;4998556;28;20182;-79
2022/10/31 08:28:04;;;;;;;6.97;6.23;;;;;;;;;;4988211;28;20198;-78
2022/10/31 08:31:09;;;;;;;7.93;5.73;;;;;;;;;;4986965;28;20222;-78
2022/10/31 08:34:16;;;;;;;6.70;5.83;;;;;;;;;;4997255;28;20178;-77
2022/10/31 08:37:39;;;;;;;6.70;6.00;;;;;;;;;;4998263;28;20614;-79
2022/10/31 08:40:48;;;;;;;8.10;5.97;;;;;;;;;;4986491;28;20218;-78
2022/10/31 08:43:52;;;;;;;10.83;5.83;;;;;;;;;;4973901;28;20191;-77
2022/10/31 08:46:56;;;;;;;10.13;6.87;;;;;;;;;;4987136;28;20178;-78
2022/10/31 08:50:00;;;;;;;8.40;7.03;;;;;;;;;;4972195;28;20664;-79
2022/10/31 08:53:08;;;;;;;9.00;7.03;;;;;;;;;;4955196;28;20562;-78
2022/10/31 08:56:13;;;;;;;9.63;7.13;;;;;;;;;;4957277;28;20223;-78
2022/10/31 08:59:17;;;;;;;13.80;7.60;;;;;;;;;;4957565;28;20175;-78
2022/10/31 09:02:41;;;;;;;9.17;7.60;;;;;;;;;;4979263;28;20203;-77
2022/10/31 09:05:45;;;;;;;9.67;7.30;;;;;;;;;;4962471;28;20194;-77
2022/10/31 09:08:50;;;;;;;10.30;6.70;;;;;;;;;;4960590;28;20183;-77
2022/10/31 09:11:55;;;;;;;14.40;6.63;;;;;;;;;;4970891;28;20214;-77
2022/10/31 09:15:17;;;;;;;7.67;6.40;;;;;;;;;;4973609;28;20183;-78
2022/10/31 09:18:31;;;;;;;7.57;6.83;;;;;;;;;;4970154;28;20187;-77
2022/10/31 09:21:36;;;;;;;13.47;7.37;;;;;;;;;;4959491;28;20223;-78
2022/10/31 09:24:40;;;;;;;9.27;6.47;;;;;;;;;;4957262;28;20547;-78
2022/10/31 09:27:44;;;;;;;11.50;7.20;;;;;;;;;;4958079;28;20195;-78
2022/10/31 09:30:53;;;;;;;32.53;7.70;;;;;;;;;;4985147;28;20221;-77
2022/10/31 09:34:17;;;;;;;43.07;8.47;;;;;;;;;;4991207;28;20206;-78
2022/10/31 09:37:26;;;;;;;23.83;9.00;;;;;;;;;;4964651;28;20575;-77
2022/10/31 09:40:33;;;;;;;11.07;9.30;;;;;;;;;;4955751;28;20191;-77
2022/10/31 09:44:18;;;;;;;110.17;10.77;;;;;;;;;;4955463;28;20183;-77
2022/10/31 09:47:55;;;;;;;11.33;9.13;;;;;;;;;;4954999;28;20570;-76
2022/10/31 09:51:11;;;;;;;12.83;9.30;;;;;;;;;;4977863;28;20321;-76
2022/10/31 09:54:57;;;;;;;19.93;8.73;;;;;;;;;;4965344;28;20171;-76
2022/10/31 09:58:02;;;;;;;11.27;8.37;;;;;;;;;;4964609;28;20179;-76
2022/10/31 10:01:19;;;;;;;25.33;8.73;;;;;;;;;;4953865;28;20218;-76
2022/10/31 10:04:43;;;;;;;35.33;10.07;;;;;;;;;;4976023;28;20187;-76
2022/10/31 10:08:18;;;;;;;18.23;9.17;;;;;;;;;;4964691;28;20187;-76
2022/10/31 10:11:34;;;;;;;24.17;9.47;;;;;;;;;;4974991;28;20218;-76
2022/10/31 10:15:21;;;;;;;66.90;10.53;;;;;;;;;;4976059;28;20183;-76
2022/10/31 10:18:34;;;;;;;15.93;11.17;;;;;;;;;;4971489;28;20218;-76
2022/10/31 10:21:56;;;;;;;17.27;10.30;;;;;;;;;;4975839;28;20227;-76
2022/10/31 10:25:12;;;;;;;50.90;10.47;;;;;;;;;;4963635;28;20186;-76
2022/10/31 10:28:29;;;;;;;36.80;11.57;;;;;;;;;;4975814;28;20217;-76
2022/10/31 10:31:39;;;;;;;18.40;11.20;;;;;;;;;;4981521;28;20229;-76
2022/10/31 10:34:51;;;;;;;45.20;11.33;;;;;;;;;;4975151;28;20194;-76
2022/10/31 10:38:02;;;;;;;33.43;11.33;;;;;;;;;;4996725;28;20205;-76
2022/10/31 10:41:20;;;;;;;32.87;11.37;;;;;;;;;;4986681;28;20589;-76
2022/10/31 10:47:56;;;;;;;14.13;11.07;;;;;;;;;;4998496;28;20185;-76
2022/10/31 10:51:01;;;;;;;15.97;10.43;;;;;;;;;;4986617;28;20577;-76
2022/10/31 10:54:41;;;;;;;53.53;11.10;;;;;;;;;;4984995;28;20228;-77
2022/10/31 10:58:02;;;;;;;20.80;11.87;;;;;;;;;;4997116;28;20692;-77
2022/10/31 11:01:14;;;;;;;32.70;12.03;;;;;;;;;;4997017;28;20641;-76
2022/10/31 11:04:34;;;;;;;11.90;10.20;;;;;;;;;;4997009;28;20185;-76
2022/10/31 11:07:39;;;;;;;13.07;10.27;;;;;;;;;;4985471;28;20190;-77
2022/10/31 11:10:44;;;;;;;31.00;11.17;;;;;;;;;;4996560;28;20221;-77
2022/10/31 11:17:17;;;;;;;12.17;10.07;;;;;;;;;;5045345;28;20282;-81
2022/10/31 11:20:32;;;;;;;12.87;11.13;;;;;;;;;;5024992;28;20182;-82
2022/10/31 11:23:36;;;;;;;13.27;11.87;;;;;;;;;;5036308;28;20199;-81
2022/10/31 11:26:43;;;;;;;16.97;11.47;;;;;;;;;;5013596;28;20187;-81
2022/10/31 11:29:51;;;;;;;15.97;12.03;;;;;;;;;;5013143;28;20187;-81
2022/10/31 11:32:56;;;;;;;18.37;11.50;;;;;;;;;;5011033;28;20211;-82
2022/10/31 11:36:18;;;;;;;16.90;11.20;;;;;;;;;;5005270;28;20180;-82
2022/10/31 11:39:24;;;;;;;26.60;12.40;;;;;;;;;;5006636;28;20184;-82
2022/10/31 11:42:35;;;;;;;18.20;13.37;;;;;;;;;;5006180;28;20598;-81
2022/10/31 11:45:40;;;;;;;13.40;11.47;;;;;;;;;;5016951;28;20659;-81
2022/10/31 11:48:50;;;;;;;13.83;12.10;;;;;;;;;;5017114;28;20252;-82
2022/10/31 11:51:57;;;;;;;19.87;13.33;;;;;;;;;;4996243;28;20215;-81
2022/10/31 11:55:14;;;;;;;17.83;13.57;;;;;;;;;;5017051;28;20188;-81
2022/10/31 11:58:24;;;;;;;15.10;12.63;;;;;;;;;;5004094;28;20181;-81
2022/10/31 12:01:31;;;;;;;23.33;13.87;;;;;;;;;;5005908;28;20219;-81
2022/10/31 12:04:43;;;;;;;17.47;12.47;;;;;;;;;;4994327;28;20535;-81
2022/10/31 12:07:49;;;;;;;18.77;12.50;;;;;;;;;;5017699;28;20193;-81
2022/10/31 12:11:32;;;;;;;15.30;12.23;;;;;;;;;;5004495;28;20219;-82
2022/10/31 12:15:11;;;;;;;14.80;11.53;;;;;;;;;;5016777;28;20178;-81
2022/10/31 12:18:57;;;;;;;16.87;11.83;;;;;;;;;;4994911;28;20579;-82
2022/10/31 12:22:39;;;;;;;14.10;12.23;;;;;;;;;;4997322;28;20224;-81
2022/10/31 12:25:56;;;;;;;21.23;13.43;;;;;;;;;;5012878;28;20212;-81
2022/10/31 12:29:20;;;;;;;20.50;13.67;;;;;;;;;;5012328;28;20193;-81
2022/10/31 12:32:35;;;;;;;28.30;13.93;;;;;;;;;;4992070;28;20220;-81
2022/10/31 12:36:12;;;;;;;20.53;13.27;;;;;;;;;;4992219;28;20188;-82
2022/10/31 12:39:52;;;;;;;22.70;13.60;;;;;;;;;;4992106;28;20571;-81
2022/10/31 12:43:14;;;;;;;19.50;13.57;;;;;;;;;;5014842;28;20199;-82
2022/10/31 12:46:32;;;;;;;15.07;13.30;;;;;;;;;;4991917;28;20192;-81
2022/10/31 12:49:48;;;;;;;15.10;12.37;;;;;;;;;;4991442;28;20208;-82
2022/10/31 12:53:23;;;;;;;15.80;13.60;;;;;;;;;;5012904;28;20188;-81
2022/10/31 12:56:49;;;;;;;26.37;13.30;;;;;;;;;;5013980;28;20188;-82
2022/10/31 13:00:03;;;;;;;20.13;14.13;;;;;;;;;;4990333;28;20184;-81
2022/10/31 13:03:30;;;;;;;18.77;13.47;;;;;;;;;;5002268;28;20184;-81
2022/10/31 13:06:40;;;;;;;18.63;14.07;;;;;;;;;;5002752;28;20359;-81
2022/10/31 13:09:58;;;;;;;18.30;14.17;;;;;;;;;;5003568;28;20192;-81
2022/10/31 13:13:26;;;;;;;44.07;13.03;;;;;;;;;;5003167;28;20223;-81
2022/10/31 13:16:38;;;;;;;18.87;13.03;;;;;;;;;;5012600;28;20210;-81
2022/10/31 13:19:45;;;;;;;13.90;12.30;;;;;;;;;;5013263;28;20188;-81
2022/10/31 13:22:55;;;;;;;19.90;12.47;;;;;;;;;;4991827;28;20183;-81
2022/10/31 13:26:07;;;;;;;18.77;11.83;;;;;;;;;;5013145;28;20190;-81
2022/10/31 13:29:17;;;;;;;45.77;12.87;;;;;;;;;;5011441;28;20188;-81
2022/10/31 13:32:21;;;;;;;14.50;12.47;;;;;;;;;;4988967;28;20232;-81
2022/10/31 13:35:48;;;;;;;19.20;13.27;;;;;;;;;;5001039;28;20188;-82
2022/10/31 13:38:59;;;;;;;14.80;12.40;;;;;;;;;;5000512;28;20181;-81
2022/10/31 13:42:10;;;;;;;13.83;11.83;;;;;;;;;;5008178;28;20722;-81
2022/10/31 13:45:20;;;;;;;15.27;13.13;;;;;;;;;;5012146;28;20549;-82
2022/10/31 13:48:24;;;;;;;16.53;12.57;;;;;;;;;;4989283;28;20181;-81
2022/10/31 13:51:34;;;;;;;24.37;13.67;;;;;;;;;;5000368;28;20382;-81
2022/10/31 13:54:45;;;;;;;16.67;13.47;;;;;;;;;;4989356;28;20203;-81
2022/10/31 13:57:49;;;;;;;16.33;13.93;;;;;;;;;;5000223;28;20212;-82
2022/10/31 14:01:18;;;;;;;17.03;14.47;;;;;;;;;;5000522;28;20224;-81
2022/10/31 14:04:26;;;;;;;15.70;13.47;;;;;;;;;;5023648;28;20179;-82
2022/10/31 14:07:31;;;;;;;18.07;14.30;;;;;;;;;;4988968;28;20188;-81
2022/10/31 14:10:38;;;;;;;17.70;13.20;;;;;;;;;;4989579;28;20231;-80
2022/10/31 14:13:45;;;;;;;16.20;12.83;;;;;;;;;;5001450;28;20207;-81
2022/10/31 14:16:56;;;;;;;24.33;14.40;;;;;;;;;;5010316;28;20185;-82
2022/10/31 14:20:11;;;;;;;19.00;14.33;;;;;;;;;;4998302;28;20184;-81
2022/10/31 14:23:42;;;;;;;27.70;14.90;;;;;;;;;;5001591;28;20200;-80
2022/10/31 14:27:02;;;;;;;17.80;14.60;;;;;;;;;;4985251;28;20196;-81
2022/10/31 14:30:18;;;;;;;23.13;15.23;;;;;;;;;;5017370;28;20694;-81
2022/10/31 14:33:26;;;;;;;17.17;14.50;;;;;;;;;;5001216;28;20180;-81
2022/10/31 14:36:47;;;;;;;20.20;15.20;;;;;;;;;;5009891;28;20189;-82
2022/10/31 14:40:13;;;;;;;28.83;14.00;;;;;;;;;;4999097;28;20192;-82
2022/10/31 14:43:21;;;;;;;27.70;14.37;;;;;;;;;;4996659;28;20200;-81
2022/10/31 14:46:44;;;;;;;18.97;15.10;;;;;;;;;;4996877;28;20182;-81
2022/10/31 14:50:06;;;;;;;28.37;22.23;;;;;;;;;;4996887;28;20193;-80
2022/10/31 14:53:26;;;;;;;30.13;16.20;;;;;;;;;;4986218;28;20663;-80
2022/10/31 14:56:34;;;;;;;20.63;15.07;;;;;;;;;;4998943;28;20188;-80
2022/10/31 14:59:50;;;;;;;48.27;17.57;;;;;;;;;;4985511;28;20184;-80
2022/10/31 15:03:00;;;;;;;21.77;17.30;;;;;;;;;;5021079;28;20561;-79
2022/10/31 15:06:17;;;;;;;76.87;19.20;;;;;;;;;;4990527;28;20192;-80
2022/10/31 15:09:26;;;;;;;63.10;16.27;;;;;;;;;;5010088;28;20205;-81
2022/10/31 15:12:33;;;;;;;44.03;17.73;;;;;;;;;;4996631;28;20228;-81
2022/10/31 15:15:39;;;;;;;22.47;17.23;;;;;;;;;;5008250;28;20212;-81
2022/10/31 15:18:52;;;;;;;102.17;16.53;;;;;;;;;;5020108;28;20276;-81
2022/10/31 15:21:57;;;;;;;26.43;16.40;;;;;;;;;;4984301;28;20229;-82
2022/10/31 15:25:02;;;;;;;31.33;18.13;;;;;;;;;;5011899;28;20651;-81
2022/10/31 15:28:14;;;;;;;50.20;17.93;;;;;;;;;;5021900;28;20196;-81
2022/10/31 15:31:19;;;;;;;23.70;17.53;;;;;;;;;;4995473;28;20228;-81
2022/10/31 15:34:26;;;;;;;57.80;17.87;;;;;;;;;;4998427;28;20185;-81
2022/10/31 15:37:30;;;;;;;107.67;19.53;;;;;;;;;;4996482;28;20212;-81
2022/10/31 15:40:36;;;;;;;52.55;24.08;;;;;;;;;;4995667;28;20679;-82
2022/10/31 15:43:44;;;;;;;54.33;20.40;;;;;;;;;;5001580;28;20683;-81
2022/10/31 15:46:57;;;;;;;37.83;17.33;;;;;;;;;;4999336;28;20215;-81
2022/10/31 15:50:04;;;;;;;37.10;18.33;;;;;;;;;;5004586;28;20193;-81
2022/10/31 15:53:24;;;;;;;27.83;18.17;;;;;;;;;;5026295;28;20188;-82
2022/10/31 15:56:31;;;;;;;26.87;18.47;;;;;;;;;;5004530;28;20188;-81
2022/10/31 15:59:37;;;;;;;29.87;17.73;;;;;;;;;;5014475;28;20188;-81
2022/10/31 16:02:41;;;;;;;21.67;17.03;;;;;;;;;;5038495;28;20611;-80
2022/10/31 16:05:49;;;;;;;21.97;17.30;;;;;;;;;;5026602;28;20687;-81
2022/10/31 16:08:52;;;;;;;69.50;19.60;;;;;;;;;;5018861;28;20185;-80
2022/10/31 16:11:58;;;;;;;32.87;17.73;;;;;;;;;;5005853;28;20232;-80
2022/10/31 16:15:04;;;;;;;62.33;23.47;;;;;;;;;;5018248;28;20707;-81
2022/10/31 16:18:11;;;;;;;76.53;25.53;;;;;;;;;;5009121;28;20228;-81
2022/10/31 16:21:27;;;;;;;92.70;27.37;;;;;;;;;;5000099;28;20239;-81
2022/10/31 16:24:34;;;;;;;25.97;18.17;;;;;;;;;;5010103;28;20193;-81
2022/10/31 16:27:39;;;;;;;25.40;18.00;;;;;;;;;;5010680;28;20205;-81
2022/10/31 16:30:49;;;;;;;24.83;18.70;;;;;;;;;;4998770;28;20679;-81
2022/10/31 16:34:20;;;;;;;26.83;17.80;;;;;;;;;;4999548;28;20189;-81
2022/10/31 16:37:25;;;;;;;34.53;19.80;;;;;;;;;;5011589;28;20184;-81
2022/10/31 16:40:30;;;;;;;38.17;17.37;;;;;;;;;;4991607;28;20184;-82
2022/10/31 16:43:34;;;;;;;108.67;18.20;;;;;;;;;;5003605;28;20199;-81
2022/10/31 16:46:38;;;;;;;26.03;18.73;;;;;;;;;;5014666;28;20203;-81
2022/10/31 16:49:46;;;;;;;29.30;18.97;;;;;;;;;;5003572;28;20191;-81
2022/10/31 16:52:50;;;;;;;22.87;17.93;;;;;;;;;;5002308;28;20192;-81
2022/10/31 16:55:58;;;;;;;122.53;22.97;;;;;;;;;;4992106;28;20192;-80
2022/10/31 16:59:05;;;;;;;24.70;19.00;;;;;;;;;;5003149;28;20236;-82
2022/10/31 17:02:14;;;;;;;25.30;18.47;;;;;;;;;;5004415;28;20223;-80
2022/10/31 17:05:20;;;;;;;102.47;41.13;;;;;;;;;;4992867;28;20188;-81
2022/10/31 17:08:25;;;;;;;36.63;22.80;;;;;;;;;;5008779;28;20199;-81
2022/10/31 17:11:30;;;;;;;96.33;18.87;;;;;;;;;;5003000;28;20666;-80
2022/10/31 17:14:34;;;;;;;60.33;17.73;;;;;;;;;;5002715;28;20192;-81
2022/10/31 17:17:38;;;;;;;27.87;17.00;;;;;;;;;;4990748;28;20192;-81
2022/10/31 17:20:43;;;;;;;18.90;16.50;;;;;;;;;;5002081;28;20583;-81
2022/10/31 17:23:51;;;;;;;209.37;18.60;;;;;;;;;;5012276;28;20184;-82
2022/10/31 17:26:55;;;;;;;52.17;16.23;;;;;;;;;;5002674;28;20208;-82
2022/10/31 17:30:00;;;;;;;59.23;17.20;;;;;;;;;;5023590;28;20185;-81
2022/10/31 17:33:04;;;;;;;21.83;14.90;;;;;;;;;;4999887;28;20540;-80
2022/10/31 17:36:08;;;;;;;59.80;16.50;;;;;;;;;;5026455;28;20187;-81
2022/10/31 17:39:13;;;;;;;26.47;15.87;;;;;;;;;;5001853;28;20221;-81
2022/10/31 17:42:17;;;;;;;61.03;14.53;;;;;;;;;;5002028;28;20579;-79
2022/10/31 17:45:23;;;;;;;17.40;14.87;;;;;;;;;;5000892;28;20192;-79
2022/10/31 17:48:28;;;;;;;101.83;15.43;;;;;;;;;;5011503;28;20208;-78
2022/10/31 17:51:34;;;;;;;93.67;14.60;;;;;;;;;;5026567;28;20583;-79
2022/10/31 17:54:38;;;;;;;191.10;15.77;;;;;;;;;;5018110;28;20552;-79
2022/10/31 17:57:43;;;;;;;161.60;18.00;;;;;;;;;;4996445;28;20184;-78
2022/10/31 18:00:47;;;;;;;227.47;19.07;;;;;;;;;;4989425;28;20231;-79
2022/10/31 18:03:51;;;;;;;96.93;14.07;;;;;;;;;;4989894;28;20192;-82
2022/10/31 18:06:55;;;;;;;61.43;14.83;;;;;;;;;;5010994;28;20676;-81
2022/10/31 18:10:00;;;;;;;22.40;15.23;;;;;;;;;;4988078;28;20200;-81
2022/10/31 18:13:04;;;;;;;18.37;13.33;;;;;;;;;;5011560;28;20291;-82
2022/10/31 18:16:10;;;;;;;51.53;15.73;;;;;;;;;;5021438;28;20216;-81
2022/10/31 18:19:17;;;;;;;68.20;14.40;;;;;;;;;;5010815;28;20220;-82
2022/10/31 18:22:22;;;;;;;23.10;13.47;;;;;;;;;;4987165;28;20236;-81
2022/10/31 18:25:26;;;;;;;47.63;13.80;;;;;;;;;;4999499;28;20188;-81
2022/10/31 18:28:30;;;;;;;19.53;13.13;;;;;;;;;;4998264;28;20184;-82
2022/10/31 18:31:34;;;;;;;23.33;13.23;;;;;;;;;;4998774;28;20216;-82
2022/10/31 18:34:39;;;;;;;12.57;11.27;;;;;;;;;;4998580;28;20189;-82
2022/10/31 18:37:43;;;;;;;13.03;11.73;;;;;;;;;;4986477;28;20188;-82
2022/10/31 18:40:47;;;;;;;17.80;12.10;;;;;;;;;;5022897;28;20220;-81
2022/10/31 18:43:54;;;;;;;13.97;12.00;;;;;;;;;;5021819;28;20199;-81
2022/10/31 18:46:59;;;;;;;32.03;14.47;;;;;;;;;;5008239;28;20184;-82
2022/10/31 18:50:03;;;;;;;29.40;13.67;;;;;;;;;;4997249;28;20644;-82
2022/10/31 18:53:08;;;;;;;59.40;22.00;;;;;;;;;;4986518;28;20188;-82